Time;durP1;ratioP1;P1;durP2;ratioP2;P2;SDS_P1;SDS_P2;PMS_P1;PMS_P2;Temp;Humidity;BMP_temperature;BMP_pressure;BME280_temperature;BME280_humidity;BME280_pressure;Samples;Min_cycle;Max_cycle;Signal;HPM_P1;HPM_P2
2022/02/07 00:00:06;;;;;;;;;;;4.90;95.80;;;;;;5070535;28;19908;-74
2022/02/07 00:03:01;;;;;;;;;;;4.90;95.80;;;;;;5069163;28;20358;-74
2022/02/07 00:05:23;;;;;;;;;;;4.90;95.80;;;;;;5070151;28;19912;-74
2022/02/07 00:07:48;;;;;;;;;;;4.90;95.80;;;;;;5070274;28;19928;-74
2022/02/07 00:10:14;;;;;;;;;;;4.90;95.80;;;;;;5070345;28;19935;-75
2022/02/07 00:12:45;;;;;;;;;;;4.90;95.80;;;;;;5070329;28;19959;-75
2022/02/07 00:15:11;;;;;;;;;;;4.90;95.80;;;;;;5068965;28;19924;-74
2022/02/07 00:17:37;;;;;;;;;;;4.90;95.80;;;;;;5069944;28;19920;-74
2022/02/07 00:20:07;;;;;;;;;;;4.90;95.90;;;;;;5051895;28;19916;-74
2022/02/07 00:22:33;;;;;;;;;;;4.90;95.90;;;;;;5069961;28;19916;-75
2022/02/07 00:24:59;;;;;;;;;;;4.90;95.80;;;;;;5068335;28;20329;-74
2022/02/07 00:27:24;;;;;;;;;;;4.80;95.80;;;;;;5070068;28;20011;-75
2022/02/07 00:29:50;;;;;;;;;;;4.90;95.80;;;;;;5069703;28;20010;-74
2022/02/07 00:32:15;;;;;;;;;;;4.80;95.80;;;;;;5068659;28;19916;-75
2022/02/07 00:34:41;;;;;;;;;;;4.80;95.80;;;;;;5069688;28;19944;-75
2022/02/07 00:37:06;;;;;;;;;;;4.80;95.80;;;;;;5069725;28;19913;-74
2022/02/07 00:39:41;;;;;;;;;;;4.80;95.80;;;;;;5069598;28;20389;-75
2022/02/07 00:42:10;;;;;;;;;;;4.80;95.90;;;;;;5069646;28;20011;-75
2022/02/07 00:44:36;;;;;;;;;;;4.80;95.80;;;;;;5068434;28;19923;-75
2022/02/07 00:47:08;;;;;;;;;;;4.80;95.80;;;;;;5068316;28;20343;-74
2022/02/07 00:49:33;;;;;;;;;;;4.70;95.80;;;;;;5069693;28;19913;-75
2022/02/07 00:51:59;;;;;;;;;;;4.70;95.80;;;;;;5068209;28;19919;-74
2022/02/07 00:54:25;;;;;;;;;;;4.70;95.70;;;;;;5069311;28;20281;-75
2022/02/07 00:56:50;;;;;;;;;;;4.70;95.70;;;;;;5069130;28;20275;-74
2022/02/07 00:59:16;;;;;;;;;;;4.70;95.70;;;;;;5069239;28;20045;-74
2022/02/07 01:01:42;;;;;;;;;;;4.70;95.70;;;;;;5069160;28;19912;-74
2022/02/07 01:04:08;;;;;;;;;;;4.70;95.70;;;;;;5067916;28;19917;-74
2022/02/07 01:06:33;;;;;;;;;;;4.70;95.70;;;;;;5069147;28;19915;-74
2022/02/07 01:09:19;;;;;;;;;;;4.60;95.70;;;;;;5051093;28;20274;-75
2022/02/07 01:47:31;;;;;;;;;;;4.30;95.70;;;;;;5068493;28;20416;-74
2022/02/07 01:54:45;;;;;;;;;;;4.40;95.70;;;;;;5067006;28;19916;-74
2022/02/07 01:57:12;;;;;;;;;;;4.40;95.70;;;;;;5068356;28;19938;-74
2022/02/07 01:59:38;;;;;;;;;;;4.30;95.70;;;;;;5067018;28;19916;-75
2022/02/07 02:02:05;;;;;;;;;;;4.30;95.80;;;;;;5066919;28;19912;-74
2022/02/07 02:04:30;;;;;;;;;;;4.30;95.80;;;;;;5068101;28;19913;-74
2022/02/07 02:06:56;;;;;;;;;;;4.30;95.90;;;;;;5068216;28;19958;-75
2022/02/07 02:09:22;;;;;;;;;;;4.20;96.00;;;;;;5068116;28;20003;-75
2022/02/07 02:11:48;;;;;;;;;;;4.20;96.00;;;;;;5066739;28;19915;-75
2022/02/07 02:36:27;;;;;;;;;;;4.40;96.20;;;;;;5067916;28;19999;-75
2022/02/07 02:46:53;;;;;;;;;;;4.40;96.30;;;;;;5067129;28;20006;-74
2022/02/07 02:49:19;;;;;;;;;;;4.40;96.30;;;;;;5067829;28;19916;-75
2022/02/07 02:51:45;;;;;;;;;;;4.40;96.40;;;;;;5067800;28;19915;-75
2022/02/07 02:54:10;;;;;;;;;;;4.40;96.40;;;;;;5066512;28;19925;-75
2022/02/07 02:56:36;;;;;;;;;;;4.40;96.40;;;;;;5067772;28;19920;-75
2022/02/07 02:59:05;;;;;;;;;;;4.50;96.50;;;;;;5067728;28;19913;-75
2022/02/07 03:01:31;;;;;;;;;;;4.60;96.50;;;;;;5067635;28;19927;-75
2022/02/07 03:03:56;;;;;;;;;;;4.60;96.50;;;;;;5067630;28;19908;-74
2022/02/07 03:06:22;;;;;;;;;;;4.70;96.40;;;;;;5066449;28;19916;-75
2022/02/07 03:08:48;;;;;;;;;;;4.60;96.40;;;;;;5071944;28;20000;-75
2022/02/07 03:11:23;;;;;;;;;;;4.70;96.40;;;;;;5071382;28;19908;-74
2022/02/07 03:13:54;;;;;;;;;;;4.70;96.40;;;;;;5070160;28;20274;-75
2022/02/07 03:16:39;;;;;;;;;;;4.70;96.50;;;;;;5069964;28;19920;-75
2022/02/07 03:19:05;;;;;;;;;;;4.70;96.50;;;;;;5071274;28;20366;-75
2022/02/07 03:21:31;;;;;;;;;;;4.70;96.50;;;;;;5071170;28;20317;-74
2022/02/07 03:23:56;;;;;;;;;;;4.70;96.60;;;;;;5071131;28;19909;-75
2022/02/07 03:26:22;;;;;;;;;;;4.70;96.70;;;;;;5071097;28;19935;-74
2022/02/07 03:28:48;;;;;;;;;;;4.70;96.80;;;;;;5071051;28;19995;-75
2022/02/07 03:31:15;;;;;;;;;;;4.70;96.90;;;;;;5070972;28;20003;-74
2022/02/07 03:33:40;;;;;;;;;;;4.70;96.90;;;;;;5070974;28;19912;-75
2022/02/07 03:36:06;;;;;;;;;;;4.80;97.10;;;;;;5070887;28;20297;-74
2022/02/07 03:38:31;;;;;;;;;;;4.80;97.10;;;;;;5069514;28;20022;-75
2022/02/07 03:40:57;;;;;;;;;;;4.90;97.20;;;;;;5070892;28;19912;-75
2022/02/07 03:43:23;;;;;;;;;;;4.90;97.20;;;;;;5071121;28;20007;-74
2022/02/07 03:45:49;;;;;;;;;;;5.00;97.10;;;;;;5069532;28;19956;-74
2022/02/07 03:48:15;;;;;;;;;;;5.00;97.10;;;;;;5070593;28;19960;-74
2022/02/07 03:50:40;;;;;;;;;;;5.10;97.20;;;;;;5070695;28;20184;-75
2022/02/07 03:53:06;;;;;;;;;;;5.10;97.20;;;;;;5070630;28;19909;-74
2022/02/07 03:55:31;;;;;;;;;;;5.20;97.10;;;;;;5070765;28;20290;-75
2022/02/07 03:57:57;;;;;;;;;;;5.20;97.10;;;;;;5070519;28;19999;-74
2022/02/07 04:00:23;;;;;;;;;;;5.20;97.10;;;;;;5070453;28;19919;-74
2022/02/07 04:02:51;;;;;;;;;;;5.20;97.10;;;;;;5070483;28;20306;-74
2022/02/07 04:08:01;;;;;;;;;;;5.30;97.20;;;;;;5070417;28;19919;-74
2022/02/07 04:10:32;;;;;;;;;;;5.30;97.10;;;;;;5070309;28;19917;-74
2022/02/07 04:13:01;;;;;;;;;;;5.40;97.20;;;;;;5070288;28;19962;-74
2022/02/07 04:15:27;;;;;;;;;;;5.50;97.30;;;;;;5070164;28;19917;-74
2022/02/07 04:18:00;;;;;;;;;;;5.60;97.30;;;;;;5069977;28;20267;-74
2022/02/07 04:20:26;;;;;;;;;;;5.60;97.20;;;;;;5070436;28;19920;-75
2022/02/07 04:22:51;;;;;;;;;;;5.70;97.20;;;;;;5070048;28;20275;-75
2022/02/07 04:25:17;;;;;;;;;;;5.70;97.00;;;;;;5069867;28;19923;-74
2022/02/07 04:27:43;;;;;;;;;;;5.80;97.00;;;;;;5069861;28;20321;-75
2022/02/07 04:30:10;;;;;;;;;;;5.80;97.00;;;;;;5069575;28;20370;-74
2022/02/07 04:32:35;;;;;;;;;;;5.80;96.90;;;;;;5069838;28;19916;-75
2022/02/07 04:35:01;;;;;;;;;;;5.80;96.90;;;;;;5069876;28;20329;-75
2022/02/07 04:37:27;;;;;;;;;;;5.80;97.00;;;;;;5068387;28;19916;-75
2022/02/07 04:39:53;;;;;;;;;;;5.80;97.00;;;;;;5068419;28;20251;-75
2022/02/07 04:42:21;;;;;;;;;;;5.80;97.10;;;;;;5069697;28;19916;-75
2022/02/07 04:45:03;;;;;;;;;;;5.80;97.10;;;;;;5069579;28;19916;-74
2022/02/07 04:48:00;;;;;;;;;;;5.80;97.10;;;;;;5069446;28;19913;-74
2022/02/07 04:51:16;;;;;;;;;;;5.80;97.30;;;;;;5068817;28;19912;-74
2022/02/07 04:53:25;;;;;;;;;;;5.80;97.30;;;;;;5066183;28;20360;-75
2022/02/07 05:01:35;;;;;;;;;;;6.00;97.50;;;;;;5069299;28;19912;-75
2022/02/07 05:04:01;;;;;;;;;;;6.10;97.60;;;;;;5068632;28;19923;-74
2022/02/07 05:14:54;;;;;;;;;;;6.50;97.80;;;;;;5067460;28;19915;-75
2022/02/07 05:17:21;;;;;;;;;;;6.50;97.80;;;;;;5068831;28;19912;-75
2022/02/07 05:19:48;;;;;;;;;;;6.60;97.80;;;;;;5068908;28;20372;-75
2022/02/07 05:22:14;;;;;;;;;;;6.60;97.80;;;;;;5068800;28;20007;-75
2022/02/07 05:24:39;;;;;;;;;;;6.70;97.80;;;;;;5069107;28;20378;-75
2022/02/07 05:27:05;;;;;;;;;;;6.80;97.90;;;;;;5067522;28;20295;-75
2022/02/07 05:29:31;;;;;;;;;;;6.80;97.90;;;;;;5068035;28;19920;-75
2022/02/07 05:31:56;;;;;;;;;;;6.80;97.90;;;;;;5068501;28;19993;-75
2022/02/07 05:34:22;;;;;;;;;;;6.80;97.90;;;;;;5068985;28;19917;-75
2022/02/07 05:36:49;;;;;;;;;;;6.80;97.90;;;;;;5068528;28;19912;-75
2022/02/07 05:39:18;;;;;;;;;;;6.90;98.00;;;;;;5068379;28;19917;-75
2022/02/07 05:41:44;;;;;;;;;;;6.90;98.00;;;;;;5067251;28;19914;-75
2022/02/07 05:44:12;;;;;;;;;;;6.90;98.10;;;;;;5068395;28;19916;-75
2022/02/07 05:46:37;;;;;;;;;;;6.90;98.10;;;;;;5067170;28;19915;-75
2022/02/07 05:49:03;;;;;;;;;;;7.00;98.10;;;;;;5068269;28;20374;-75
2022/02/07 05:51:28;;;;;;;;;;;7.00;98.20;;;;;;5068393;28;20306;-75
2022/02/07 05:53:54;;;;;;;;;;;7.00;98.10;;;;;;5066975;28;19924;-75
2022/02/07 05:56:19;;;;;;;;;;;7.00;98.20;;;;;;5068125;28;20378;-75
2022/02/07 05:58:45;;;;;;;;;;;7.10;98.20;;;;;;5068192;28;19908;-75
2022/02/07 06:01:11;;;;;;;;;;;7.10;98.30;;;;;;5068241;28;19927;-75
2022/02/07 06:03:36;;;;;;;;;;;7.10;98.30;;;;;;5068229;28;20377;-75
2022/02/07 06:06:03;;;;;;;;;;;7.20;98.30;;;;;;5066809;28;20309;-75
2022/02/07 06:08:29;;;;;;;;;;;7.10;98.40;;;;;;5068084;28;19908;-75
2022/02/07 06:10:55;;;;;;;;;;;7.20;98.40;;;;;;5066720;28;19916;-75
2022/02/07 06:13:21;;;;;;;;;;;7.20;98.50;;;;;;5068116;28;19962;-75
2022/02/07 06:15:46;;;;;;;;;;;7.20;98.40;;;;;;5067996;28;19912;-75
2022/02/07 06:18:15;;;;;;;;;;;7.20;98.50;;;;;;5066499;28;19912;-75
2022/02/07 06:20:41;;;;;;;;;;;7.20;98.50;;;;;;5066596;28;20007;-74
2022/02/07 06:23:07;;;;;;;;;;;7.20;98.70;;;;;;5067884;28;20073;-75
2022/02/07 06:25:32;;;;;;;;;;;7.20;98.90;;;;;;5067888;28;19916;-75
2022/02/07 06:27:58;;;;;;;;;;;7.20;98.90;;;;;;5067849;28;19935;-75
2022/02/07 06:30:23;;;;;;;;;;;7.20;99.00;;;;;;5066401;28;19927;-75
2022/02/07 06:32:49;;;;;;;;;;;7.20;99.10;;;;;;5068311;28;19909;-75
2022/02/07 06:35:15;;;;;;;;;;;7.20;99.30;;;;;;5067750;28;19913;-75
2022/02/07 06:37:41;;;;;;;;;;;7.20;99.30;;;;;;5066369;28;19951;-75
2022/02/07 06:40:07;;;;;;;;;;;7.20;99.50;;;;;;5067792;28;20311;-75
2022/02/07 06:42:33;;;;;;;;;;;7.20;99.60;;;;;;5069813;28;19908;-75
2022/02/07 06:44:58;;;;;;;;;;;7.20;99.70;;;;;;5071674;28;19947;-75
2022/02/07 06:47:24;;;;;;;;;;;7.30;99.90;;;;;;5071526;28;20285;-75
2022/02/07 06:49:50;;;;;;;;;;;7.30;99.90;;;;;;5071529;28;20282;-75
2022/02/07 06:52:15;;;;;;;;;;;7.30;99.90;;;;;;5070409;28;19919;-75
2022/02/07 06:54:41;;;;;;;;;;;7.40;99.90;;;;;;5071610;28;20328;-75
2022/02/07 06:57:06;;;;;;;;;;;7.40;99.90;;;;;;5071542;28;19985;-75
2022/02/07 06:59:39;;;;;;;;;;;7.40;99.90;;;;;;5071297;28;19940;-75
2022/02/07 07:02:05;;;;;;;;;;;7.40;99.90;;;;;;5070343;28;19909;-75
2022/02/07 07:04:30;;;;;;;;;;;7.50;99.90;;;;;;5071245;28;19920;-75
2022/02/07 07:06:56;;;;;;;;;;;7.50;99.90;;;;;;5071453;28;19956;-75
2022/02/07 07:09:22;;;;;;;;;;;7.50;99.90;;;;;;5069956;28;19909;-75
2022/02/07 07:11:47;;;;;;;;;;;7.50;99.90;;;;;;5071521;28;20365;-75
2022/02/07 07:14:27;;;;;;;;;;;7.60;99.90;;;;;;5071321;28;20366;-75
2022/02/07 07:16:53;;;;;;;;;;;7.60;99.90;;;;;;5070999;28;20278;-75
2022/02/07 07:19:19;;;;;;;;;;;7.60;99.90;;;;;;5069685;28;19919;-75
2022/02/07 07:21:45;;;;;;;;;;;7.60;99.90;;;;;;5071039;28;19909;-75
2022/02/07 07:24:11;;;;;;;;;;;7.70;99.90;;;;;;5070753;28;20375;-75
2022/02/07 07:26:37;;;;;;;;;;;7.70;99.90;;;;;;5070687;28;19908;-75
2022/02/07 07:29:08;;;;;;;;;;;7.70;99.90;;;;;;5069703;28;19922;-75
2022/02/07 07:31:40;;;;;;;;;;;7.80;99.90;;;;;;5070584;28;20289;-76
2022/02/07 07:34:06;;;;;;;;;;;7.80;99.90;;;;;;5071580;28;19920;-76
2022/02/07 07:36:31;;;;;;;;;;;7.80;99.90;;;;;;5071538;28;19916;-75
2022/02/07 07:38:57;;;;;;;;;;;7.90;99.90;;;;;;5069382;28;19915;-75
2022/02/07 07:41:23;;;;;;;;;;;7.90;99.90;;;;;;5070046;28;19913;-75
2022/02/07 07:43:50;;;;;;;;;;;8.00;99.90;;;;;;5070021;28;19913;-75
2022/02/07 07:46:18;;;;;;;;;;;8.00;99.90;;;;;;5069832;28;20319;-74
2022/02/07 07:48:53;;;;;;;;;;;8.10;99.90;;;;;;5070441;28;20050;-75
2022/02/07 07:51:33;;;;;;;;;;;8.10;99.90;;;;;;5069325;28;19916;-75
2022/02/07 08:02:14;;;;;;;;;;;8.40;99.90;;;;;;5070519;28;19966;-76
2022/02/07 08:04:41;;;;;;;;;;;8.40;99.90;;;;;;5068743;28;19921;-75
2022/02/07 08:07:30;;;;;;;;;;;8.50;99.90;;;;;;5070283;28;19924;-76
2022/02/07 08:12:53;;;;;;;;;;;8.60;99.90;;;;;;5057441;28;19920;-76
2022/02/07 08:15:19;;;;;;;;;;;8.70;99.90;;;;;;5069966;28;19916;-76
2022/02/07 08:17:44;;;;;;;;;;;8.70;99.90;;;;;;5069788;28;19920;-76
2022/02/07 08:20:10;;;;;;;;;;;8.80;99.90;;;;;;5070077;28;19912;-76
2022/02/07 08:22:36;;;;;;;;;;;8.80;99.90;;;;;;5070100;28;19999;-76
2022/02/07 08:25:02;;;;;;;;;;;8.90;99.90;;;;;;5069683;28;20020;-76
2022/02/07 08:27:29;;;;;;;;;;;8.90;99.90;;;;;;5069671;28;20358;-76
2022/02/07 08:29:55;;;;;;;;;;;8.90;99.90;;;;;;5069301;28;19923;-76
2022/02/07 08:32:21;;;;;;;;;;;9.00;99.90;;;;;;5069739;28;20394;-76
2022/02/07 08:34:47;;;;;;;;;;;9.00;99.90;;;;;;5069336;28;20125;-76
2022/02/07 08:37:13;;;;;;;;;;;9.10;99.90;;;;;;5067935;28;19920;-76
2022/02/07 08:39:39;;;;;;;;;;;9.10;99.90;;;;;;5069556;28;19912;-76
2022/02/07 08:42:04;;;;;;;;;;;9.10;99.90;;;;;;5069126;28;19916;-76
2022/02/07 08:44:30;;;;;;;;;;;9.10;99.90;;;;;;5069013;28;19920;-76
2022/02/07 08:46:56;;;;;;;;;;;9.20;99.90;;;;;;5068073;28;19931;-76
2022/02/07 08:49:22;;;;;;;;;;;9.20;99.90;;;;;;5068853;28;20046;-76
2022/02/07 08:51:48;;;;;;;;;;;9.20;99.90;;;;;;5069004;28;20407;-76
2022/02/07 08:54:20;;;;;;;;;;;9.30;99.90;;;;;;5067420;28;20285;-76
2022/02/07 08:56:58;;;;;;;;;;;9.30;99.90;;;;;;5067624;28;19912;-76
2022/02/07 08:59:33;;;;;;;;;;;9.40;99.90;;;;;;5068723;28;19913;-76
2022/02/07 09:07:17;;;;;;;;;;;9.60;99.90;;;;;;5088274;28;19922;-75
2022/02/07 09:09:44;;;;;;;;;;;9.60;99.90;;;;;;5088712;28;19918;-74
2022/02/07 09:12:11;;;;;;;;;;;9.70;99.90;;;;;;5070775;28;20012;-75
2022/02/07 09:14:43;;;;;;;;;;;9.80;99.90;;;;;;5088218;28;19912;-75
2022/02/07 09:17:09;;;;;;;;;;;9.80;99.90;;;;;;5088237;28;20391;-76
2022/02/07 09:19:36;;;;;;;;;;;9.90;99.90;;;;;;5087413;28;19916;-75
2022/02/07 09:22:02;;;;;;;;;;;10.00;99.90;;;;;;5088671;28;19965;-75
2022/02/07 09:24:28;;;;;;;;;;;10.00;99.90;;;;;;5088270;28;19912;-76
2022/02/07 09:26:53;;;;;;;;;;;10.10;99.90;;;;;;5069959;28;20362;-76
2022/02/07 09:29:21;;;;;;;;;;;10.10;99.90;;;;;;5087759;28;19916;-75
2022/02/07 09:31:46;;;;;;;;;;;10.20;99.90;;;;;;5086845;28;19924;-75
2022/02/07 09:34:12;;;;;;;;;;;10.20;99.90;;;;;;5087252;28;20422;-75
2022/02/07 09:36:37;;;;;;;;;;;10.30;99.90;;;;;;5088280;28;19952;-75
2022/02/07 09:39:03;;;;;;;;;;;10.30;99.90;;;;;;5088302;28;19919;-76
2022/02/07 09:41:32;;;;;;;;;;;10.30;99.90;;;;;;5088455;28;19908;-77
2022/02/07 09:44:01;;;;;;;;;;;10.30;99.90;;;;;;5087051;28;19912;-76
2022/02/07 09:46:45;;;;;;;;;;;10.40;99.90;;;;;;5087039;28;19918;-76
2022/02/07 09:49:14;;;;;;;;;;;10.40;99.90;;;;;;5087880;28;19990;-75
2022/02/07 09:51:43;;;;;;;;;;;10.40;99.90;;;;;;5088033;28;19912;-76
2022/02/07 09:54:09;;;;;;;;;;;10.50;99.90;;;;;;5086782;28;20312;-75
2022/02/07 09:56:35;;;;;;;;;;;10.60;99.90;;;;;;5087804;28;19943;-76
2022/02/07 09:59:00;;;;;;;;;;;10.70;99.90;;;;;;5087808;28;20392;-76
2022/02/07 10:01:33;;;;;;;;;;;10.80;99.90;;;;;;5087515;28;19916;-75
2022/02/07 10:04:14;;;;;;;;;;;10.80;99.90;;;;;;5084990;28;19912;-74
2022/02/07 10:06:54;;;;;;;;;;;10.90;99.90;;;;;;5082078;28;20019;-75
2022/02/07 10:13:04;;;;;;;;;;;10.90;99.90;;;;;;5076554;28;20363;-75
2022/02/07 10:15:16;;;;;;;;;;;10.90;99.90;;;;;;5069014;28;19919;-74
2022/02/07 10:46:16;;;;;;;;;;;11.30;99.90;;;;;;5083427;28;19923;-75
2022/02/07 10:48:55;;;;;;;;;;;11.50;99.90;;;;;;5087308;28;19953;-75
2022/02/07 10:51:45;;;;;;;;;;;11.70;99.90;;;;;;5082436;28;19958;-75
2022/02/07 10:54:12;;;;;;;;;;;12.00;99.90;;;;;;5081391;28;19919;-76
2022/02/07 10:56:44;;;;;;;;;;;12.20;99.90;;;;;;5086248;28;19908;-75
2022/02/07 10:59:13;;;;;;;;;;;12.30;99.90;;;;;;5085371;28;20312;-74
2022/02/07 11:04:14;;;;;;;;;;;12.30;99.90;;;;;;5085528;28;19961;-76
2022/02/07 11:06:40;;;;;;;;;;;12.30;99.90;;;;;;5087607;28;19915;-76
2022/02/07 11:22:28;;;;;;;;;;;12.40;99.90;;;;;;5061120;28;19970;-77
2022/02/07 11:25:11;;;;;;;;;;;12.40;99.90;;;;;;5084944;28;19916;-77
2022/02/07 11:27:48;;;;;;;;;;;12.40;99.90;;;;;;5084219;28;19912;-77
2022/02/07 11:30:15;;;;;;;;;;;12.40;99.90;;;;;;5090008;28;20264;-76
2022/02/07 11:32:41;;;;;;;;;;;12.50;99.90;;;;;;5086998;28;19917;-74
2022/02/07 11:35:08;;;;;;;;;;;12.80;99.90;;;;;;5090164;28;19912;-77
2022/02/07 11:37:33;;;;;;;;;;;13.60;99.90;;;;;;5087329;28;20319;-77
2022/02/07 11:39:59;;;;;;;;;;;14.10;99.90;;;;;;5090815;28;19991;-76
2022/02/07 11:42:28;;;;;;;;;;;14.20;99.90;;;;;;5090953;28;19962;-76
2022/02/07 11:44:54;;;;;;;;;;;14.10;99.90;;;;;;5087296;28;19938;-77
2022/02/07 11:47:24;;;;;;;;;;;13.90;99.90;;;;;;5090859;28;19912;-76
2022/02/07 11:49:50;;;;;;;;;;;13.90;99.90;;;;;;5083951;28;20029;-77
2022/02/07 11:52:33;;;;;;;;;;;13.90;99.90;;;;;;5088662;28;19917;-77
2022/02/07 11:55:08;;;;;;;;;;;14.20;99.90;;;;;;5088962;28;19922;-76
2022/02/07 11:57:36;;;;;;;;;;;14.40;99.90;;;;;;5087453;28;19934;-75
2022/02/07 12:00:12;;;;;;;;;;;14.50;99.90;;;;;;5089997;28;19907;-76
2022/02/07 12:02:40;;;;;;;;;;;14.50;99.90;;;;;;5087676;28;19927;-75
2022/02/07 12:05:10;;;;;;;;;;;14.40;99.90;;;;;;5089936;28;20003;-78
2022/02/07 12:07:38;;;;;;;;;;;14.20;99.90;;;;;;5091626;28;19949;-77
2022/02/07 12:12:38;;;;;;;;;;;14.00;99.90;;;;;;5090883;28;19955;-78
2022/02/07 12:15:04;;;;;;;;;;;13.90;99.90;;;;;;5091189;28;20371;-76
2022/02/07 12:17:42;;;;;;;;;;;13.80;99.90;;;;;;5090998;28;19916;-74
2022/02/07 12:20:09;;;;;;;;;;;13.70;99.90;;;;;;5090128;28;19908;-76
2022/02/07 12:22:55;;;;;;;;;;;13.70;99.90;;;;;;5084489;28;19912;-74
2022/02/07 12:25:22;;;;;;;;;;;13.70;99.90;;;;;;5090380;28;19919;-75
2022/02/07 12:27:47;;;;;;;;;;;13.60;99.90;;;;;;5090746;28;20546;-75
2022/02/07 12:32:41;;;;;;;;;;;13.50;99.90;;;;;;5089366;28;19912;-75
2022/02/07 12:35:08;;;;;;;;;;;13.40;99.90;;;;;;5090509;28;20255;-76
2022/02/07 12:37:37;;;;;;;;;;;13.50;99.90;;;;;;5088243;28;20397;-75
2022/02/07 12:40:04;;;;;;;;;;;13.40;99.90;;;;;;5088789;28;19916;-74
2022/02/07 12:42:34;;;;;;;;;;;13.40;99.90;;;;;;5090453;28;19908;-76
2022/02/07 12:45:00;;;;;;;;;;;13.30;99.90;;;;;;5090815;28;19950;-77
2022/02/07 12:47:25;;;;;;;;;;;13.10;99.90;;;;;;5090788;28;20095;-77
2022/02/07 12:49:55;;;;;;;;;;;12.90;99.90;;;;;;5090559;28;19913;-76
2022/02/07 12:52:20;;;;;;;;;;;12.70;99.90;;;;;;5088862;28;19923;-78
2022/02/07 12:54:46;;;;;;;;;;;12.50;99.90;;;;;;5090528;28;19916;-76
2022/02/07 12:57:12;;;;;;;;;;;12.40;99.90;;;;;;5087391;28;19954;-77
2022/02/07 12:59:49;;;;;;;;;;;12.40;99.90;;;;;;5088619;28;19909;-75
2022/02/07 13:02:14;;;;;;;;;;;12.30;99.90;;;;;;5089142;28;20338;-77
2022/02/07 13:04:42;;;;;;;;;;;12.40;99.90;;;;;;5071155;28;19920;-79
2022/02/07 13:07:08;;;;;;;;;;;12.50;99.90;;;;;;5089410;28;19970;-76
2022/02/07 13:09:43;;;;;;;;;;;12.50;99.90;;;;;;5072699;28;19918;-75
2022/02/07 13:14:38;;;;;;;;;;;12.80;99.90;;;;;;5089785;28;19947;-74
2022/02/07 13:17:04;;;;;;;;;;;13.10;99.90;;;;;;5082300;28;19917;-75
2022/02/07 13:19:34;;;;;;;;;;;13.40;99.90;;;;;;5088913;28;19920;-75
2022/02/07 13:21:59;;;;;;;;;;;13.80;99.90;;;;;;5082639;28;19923;-77
2022/02/07 13:24:31;;;;;;;;;;;14.20;99.90;;;;;;5088986;28;19916;-77
2022/02/07 13:26:58;;;;;;;;;;;14.30;99.90;;;;;;5091148;28;20319;-76
2022/02/07 13:29:25;;;;;;;;;;;14.30;99.90;;;;;;5088494;28;19908;-77
2022/02/07 13:31:52;;;;;;;;;;;14.20;99.90;;;;;;5090572;28;20082;-77
2022/02/07 13:34:19;;;;;;;;;;;14.00;99.90;;;;;;5089614;28;19908;-78
2022/02/07 13:36:49;;;;;;;;;;;13.90;99.90;;;;;;5086776;28;19912;-77
2022/02/07 13:39:19;;;;;;;;;;;13.80;99.90;;;;;;5087349;28;20437;-76
2022/02/07 13:42:04;;;;;;;;;;;13.70;99.90;;;;;;5088937;28;19924;-77
2022/02/07 13:44:30;;;;;;;;;;;13.60;99.90;;;;;;5070835;28;19920;-76
2022/02/07 13:47:00;;;;;;;;;;;13.60;99.90;;;;;;5089085;28;19915;-77
2022/02/07 13:49:25;;;;;;;;;;;13.50;99.90;;;;;;5089261;28;19908;-77
2022/02/07 13:51:52;;;;;;;;;;;13.50;99.90;;;;;;5087223;28;19916;-77
2022/02/07 13:54:26;;;;;;;;;;;13.60;99.80;;;;;;5089065;28;19982;-76
2022/02/07 13:56:56;;;;;;;;;;;13.60;99.50;;;;;;5087501;28;19916;-77
2022/02/07 13:59:22;;;;;;;;;;;13.50;99.50;;;;;;5088784;28;19916;-76
2022/02/07 14:01:49;;;;;;;;;;;13.50;99.20;;;;;;5089079;28;19944;-76
2022/02/07 14:04:19;;;;;;;;;;;13.40;99.20;;;;;;5089463;28;20328;-79
2022/02/07 14:07:03;;;;;;;;;;;13.30;99.30;;;;;;5087242;28;19981;-77
2022/02/07 14:09:29;;;;;;;;;;;13.30;99.30;;;;;;5083750;28;19985;-77
2022/02/07 14:11:58;;;;;;;;;;;13.20;99.30;;;;;;5090284;28;19913;-78
2022/02/07 14:14:25;;;;;;;;;;;13.20;99.30;;;;;;5088696;28;19912;-78
2022/02/07 14:16:54;;;;;;;;;;;13.20;99.30;;;;;;5088454;28;20011;-77
2022/02/07 14:19:33;;;;;;;;;;;13.10;99.40;;;;;;5088110;28;20415;-75
2022/02/07 14:21:59;;;;;;;;;;;13.10;99.40;;;;;;5084315;28;19962;-75
2022/02/07 14:24:27;;;;;;;;;;;13.10;99.40;;;;;;5087316;28;19912;-75
2022/02/07 14:26:53;;;;;;;;;;;13.10;99.40;;;;;;5087797;28;19951;-77
2022/02/07 14:29:19;;;;;;;;;;;13.20;99.30;;;;;;5087859;28;20309;-77
2022/02/07 14:31:44;;;;;;;;;;;13.10;99.10;;;;;;5086743;28;20380;-77
2022/02/07 14:34:10;;;;;;;;;;;13.10;99.10;;;;;;5087991;28;19922;-75
2022/02/07 14:36:36;;;;;;;;;;;13.20;99.00;;;;;;5084733;28;20049;-76
2022/02/07 14:39:02;;;;;;;;;;;13.20;99.00;;;;;;5087022;28;19924;-75
2022/02/07 14:41:28;;;;;;;;;;;13.20;98.90;;;;;;5086843;28;20362;-76
2022/02/07 14:44:00;;;;;;;;;;;13.20;98.90;;;;;;5087833;28;19919;-76
2022/02/07 14:46:33;;;;;;;;;;;13.30;98.80;;;;;;5087572;28;19916;-76
2022/02/07 14:48:59;;;;;;;;;;;13.30;98.70;;;;;;5087805;28;19927;-77
2022/02/07 14:51:26;;;;;;;;;;;13.40;98.60;;;;;;5085086;28;19919;-77
2022/02/07 14:53:52;;;;;;;;;;;13.40;98.70;;;;;;5085607;28;19912;-78
2022/02/07 14:56:17;;;;;;;;;;;13.40;98.50;;;;;;5087120;28;19912;-78
2022/02/07 14:58:43;;;;;;;;;;;13.40;98.30;;;;;;5088864;28;19924;-76
2022/02/07 15:01:09;;;;;;;;;;;13.40;98.20;;;;;;5087581;28;19912;-74
2022/02/07 15:03:35;;;;;;;;;;;13.30;98.00;;;;;;5089660;28;19947;-76
2022/02/07 15:06:01;;;;;;;;;;;13.20;98.00;;;;;;5092983;28;20038;-76
2022/02/07 15:08:28;;;;;;;;;;;13.20;98.00;;;;;;5092661;28;19915;-76
2022/02/07 15:10:54;;;;;;;;;;;13.10;98.10;;;;;;5086746;28;20000;-78
2022/02/07 15:13:20;;;;;;;;;;;13.10;98.10;;;;;;5082256;28;19916;-76
2022/02/07 15:15:46;;;;;;;;;;;13.10;98.20;;;;;;5079918;28;19952;-76
2022/02/07 15:18:11;;;;;;;;;;;13.10;98.10;;;;;;5083419;28;19942;-76
2022/02/07 15:20:38;;;;;;;;;;;13.10;98.10;;;;;;5080037;28;19916;-76
2022/02/07 15:23:04;;;;;;;;;;;13.10;97.90;;;;;;5089655;28;19908;-75
2022/02/07 15:25:31;;;;;;;;;;;13.10;97.80;;;;;;5087799;28;20250;-76
2022/02/07 15:28:00;;;;;;;;;;;13.10;97.80;;;;;;5092344;28;19912;-76
2022/02/07 15:30:33;;;;;;;;;;;13.10;97.70;;;;;;5092799;28;20010;-76
2022/02/07 15:33:00;;;;;;;;;;;13.10;97.70;;;;;;5091630;28;19942;-77
2022/02/07 15:35:26;;;;;;;;;;;13.10;97.70;;;;;;5093447;28;19912;-75
2022/02/07 15:37:52;;;;;;;;;;;13.10;97.60;;;;;;5092317;28;19996;-75
2022/02/07 15:40:17;;;;;;;;;;;13.10;97.40;;;;;;5093179;28;19919;-76
2022/02/07 15:42:43;;;;;;;;;;;13.10;97.40;;;;;;5093316;28;19919;-73
2022/02/07 15:45:10;;;;;;;;;;;13.10;97.20;;;;;;5093501;28;19947;-76
2022/02/07 15:47:38;;;;;;;;;;;13.10;97.20;;;;;;5091599;28;19961;-76
2022/02/07 15:50:05;;;;;;;;;;;13.10;96.90;;;;;;5092180;28;20247;-75
2022/02/07 15:52:31;;;;;;;;;;;13.00;96.70;;;;;;5091896;28;19916;-76
2022/02/07 15:54:58;;;;;;;;;;;12.90;96.70;;;;;;5092189;28;19932;-75
2022/02/07 15:57:23;;;;;;;;;;;12.80;96.70;;;;;;5091237;28;19920;-77
2022/02/07 15:59:49;;;;;;;;;;;12.70;96.80;;;;;;5090587;28;19912;-75
2022/02/07 16:02:15;;;;;;;;;;;12.60;97.00;;;;;;5092210;28;19916;-75
2022/02/07 16:04:41;;;;;;;;;;;12.70;97.20;;;;;;5090515;28;20585;-76
2022/02/07 16:07:10;;;;;;;;;;;12.80;96.90;;;;;;5091668;28;20354;-75
2022/02/07 16:09:38;;;;;;;;;;;12.70;96.60;;;;;;5090045;28;19908;-77
2022/02/07 16:12:10;;;;;;;;;;;12.70;96.70;;;;;;5091223;28;19949;-75
2022/02/07 16:14:36;;;;;;;;;;;12.60;96.90;;;;;;5090878;28;19944;-73
2022/02/07 16:17:02;;;;;;;;;;;12.70;96.90;;;;;;5090762;28;19916;-75
2022/02/07 16:19:29;;;;;;;;;;;12.80;96.90;;;;;;5091107;28;19912;-78
2022/02/07 16:21:55;;;;;;;;;;;12.80;96.90;;;;;;5091332;28;19912;-77
2022/02/07 16:24:21;;;;;;;;;;;12.80;96.90;;;;;;5090289;28;19955;-75
2022/02/07 16:26:48;;;;;;;;;;;12.80;96.80;;;;;;5090942;28;19916;-76
2022/02/07 16:29:14;;;;;;;;;;;12.90;96.70;;;;;;5089629;28;20346;-76
2022/02/07 16:31:40;;;;;;;;;;;12.90;96.70;;;;;;5091004;28;20011;-75
2022/02/07 16:34:06;;;;;;;;;;;12.90;96.70;;;;;;5090440;28;19999;-73
2022/02/07 16:36:31;;;;;;;;;;;12.90;96.60;;;;;;5089913;28;19915;-73
2022/02/07 16:38:57;;;;;;;;;;;12.90;96.50;;;;;;5090427;28;19919;-74
2022/02/07 16:41:25;;;;;;;;;;;12.80;96.50;;;;;;5090669;28;20049;-75
2022/02/07 16:43:58;;;;;;;;;;;12.90;96.50;;;;;;5091213;28;19917;-73
2022/02/07 16:46:37;;;;;;;;;;;12.80;96.50;;;;;;5091631;28;19918;-74
2022/02/07 16:49:03;;;;;;;;;;;12.90;96.50;;;;;;5091176;28;19912;-74
2022/02/07 16:51:33;;;;;;;;;;;12.90;96.60;;;;;;5091046;28;19995;-75
2022/02/07 16:53:59;;;;;;;;;;;12.90;96.60;;;;;;5090028;28;19916;-78
2022/02/07 16:56:25;;;;;;;;;;;12.80;96.50;;;;;;5089024;28;19992;-75
2022/02/07 16:58:51;;;;;;;;;;;12.80;96.50;;;;;;5088509;28;19927;-75
2022/02/07 17:01:16;;;;;;;;;;;12.80;96.40;;;;;;5089525;28;19912;-75
2022/02/07 17:03:42;;;;;;;;;;;12.70;96.40;;;;;;5087653;28;19920;-75
2022/02/07 17:06:19;;;;;;;;;;;12.60;96.40;;;;;;5083090;28;19920;-77